sensor_id;sensor_type;location;lat;lon;timestamp;temperature;humidity
44833;DHT22;30569;51.252;9.830;2024-01-30T00:02:19;3.50;99.90
44833;DHT22;30569;51.252;9.830;2024-01-30T00:04:44;3.50;99.90
44833;DHT22;30569;51.252;9.830;2024-01-30T00:07:10;3.50;99.90
44833;DHT22;30569;51.252;9.830;2024-01-30T00:09:36;3.40;99.90
44833;DHT22;30569;51.252;9.830;2024-01-30T00:12:01;3.40;99.90
44833;DHT22;30569;51.252;9.830;2024-01-30T00:14:27;3.40;99.90
44833;DHT22;30569;51.252;9.830;2024-01-30T00:16:52;3.30;99.90
44833;DHT22;30569;51.252;9.830;2024-01-30T00:19:18;3.30;99.90
44833;DHT22;30569;51.252;9.830;2024-01-30T00:21:44;3.20;99.90
44833;DHT22;30569;51.252;9.830;2024-01-30T00:24:09;3.30;99.90
44833;DHT22;30569;51.252;9.830;2024-01-30T00:26:35;3.20;99.90
44833;DHT22;30569;51.252;9.830;2024-01-30T00:29:00;3.20;99.90
44833;DHT22;30569;51.252;9.830;2024-01-30T00:31:26;3.20;99.90
44833;DHT22;30569;51.252;9.830;2024-01-30T00:33:52;3.10;99.90
44833;DHT22;30569;51.252;9.830;2024-01-30T00:36:17;3.10;99.90
44833;DHT22;30569;51.252;9.830;2024-01-30T00:38:43;3.10;99.90
44833;DHT22;30569;51.252;9.830;2024-01-30T00:41:09;3.20;99.90
44833;DHT22;30569;51.252;9.830;2024-01-30T00:43:35;3.10;99.90
44833;DHT22;30569;51.252;9.830;2024-01-30T00:48:26;3.20;99.90
44833;DHT22;30569;51.252;9.830;2024-01-30T00:50:52;3.10;99.90
44833;DHT22;30569;51.252;9.830;2024-01-30T00:53:18;3.20;99.90
44833;DHT22;30569;51.252;9.830;2024-01-30T00:55:43;3.30;99.90
44833;DHT22;30569;51.252;9.830;2024-01-30T00:58:09;3.20;99.90
44833;DHT22;30569;51.252;9.830;2024-01-30T01:00:35;3.10;99.90
44833;DHT22;30569;51.252;9.830;2024-01-30T01:03:01;2.90;99.90
44833;DHT22;30569;51.252;9.830;2024-01-30T01:05:26;2.90;99.90
44833;DHT22;30569;51.252;9.830;2024-01-30T01:07:52;3.10;99.90
44833;DHT22;30569;51.252;9.830;2024-01-30T01:10:18;3.10;99.90
44833;DHT22;30569;51.252;9.830;2024-01-30T01:12:44;3.10;99.90
44833;DHT22;30569;51.252;9.830;2024-01-30T01:15:10;3.20;99.90
44833;DHT22;30569;51.252;9.830;2024-01-30T01:17:39;3.50;99.90
44833;DHT22;30569;51.252;9.830;2024-01-30T01:20:06;3.20;99.90
44833;DHT22;30569;51.252;9.830;2024-01-30T01:22:32;3.50;99.90
44833;DHT22;30569;51.252;9.830;2024-01-30T01:24:58;2.60;99.90
44833;DHT22;30569;51.252;9.830;2024-01-30T01:27:24;3.10;99.90
44833;DHT22;30569;51.252;9.830;2024-01-30T01:32:16;3.20;99.90
44833;DHT22;30569;51.252;9.830;2024-01-30T01:34:42;3.20;99.90
44833;DHT22;30569;51.252;9.830;2024-01-30T01:37:07;3.50;99.90
44833;DHT22;30569;51.252;9.830;2024-01-30T01:39:33;3.20;99.90
44833;DHT22;30569;51.252;9.830;2024-01-30T01:41:58;3.10;99.90
44833;DHT22;30569;51.252;9.830;2024-01-30T01:44:24;3.20;99.90
44833;DHT22;30569;51.252;9.830;2024-01-30T01:46:51;3.20;99.90
44833;DHT22;30569;51.252;9.830;2024-01-30T01:49:18;3.00;99.90
44833;DHT22;30569;51.252;9.830;2024-01-30T01:51:45;3.00;99.90
44833;DHT22;30569;51.252;9.830;2024-01-30T01:54:13;2.80;99.90
44833;DHT22;30569;51.252;9.830;2024-01-30T01:56:39;2.90;99.90
44833;DHT22;30569;51.252;9.830;2024-01-30T01:59:07;2.90;99.90
44833;DHT22;30569;51.252;9.830;2024-01-30T02:01:34;2.90;99.90
44833;DHT22;30569;51.252;9.830;2024-01-30T02:04:00;2.90;99.90
44833;DHT22;30569;51.252;9.830;2024-01-30T02:06:27;3.00;99.90
44833;DHT22;30569;51.252;9.830;2024-01-30T02:08:52;3.30;99.90
44833;DHT22;30569;51.252;9.830;2024-01-30T02:11:18;3.50;99.90
44833;DHT22;30569;51.252;9.830;2024-01-30T02:13:45;3.60;99.90
44833;DHT22;30569;51.252;9.830;2024-01-30T02:16:10;3.70;99.90
44833;DHT22;30569;51.252;9.830;2024-01-30T02:18:36;3.90;99.90
44833;DHT22;30569;51.252;9.830;2024-01-30T02:21:07;4.10;99.90
44833;DHT22;30569;51.252;9.830;2024-01-30T02:23:33;3.90;99.90
44833;DHT22;30569;51.252;9.830;2024-01-30T02:25:59;4.20;99.90
44833;DHT22;30569;51.252;9.830;2024-01-30T02:28:25;4.20;99.90
44833;DHT22;30569;51.252;9.830;2024-01-30T02:30:51;4.30;99.90
44833;DHT22;30569;51.252;9.830;2024-01-30T02:33:17;4.30;99.90
44833;DHT22;30569;51.252;9.830;2024-01-30T02:35:42;4.30;99.90
44833;DHT22;30569;51.252;9.830;2024-01-30T02:38:08;4.30;99.90
44833;DHT22;30569;51.252;9.830;2024-01-30T02:40:34;4.30;99.90
44833;DHT22;30569;51.252;9.830;2024-01-30T02:43:01;4.40;99.90
44833;DHT22;30569;51.252;9.830;2024-01-30T02:45:27;4.50;99.90
44833;DHT22;30569;51.252;9.830;2024-01-30T02:47:52;4.40;99.90
44833;DHT22;30569;51.252;9.830;2024-01-30T02:50:18;4.50;99.90
44833;DHT22;30569;51.252;9.830;2024-01-30T02:52:44;4.50;99.90
44833;DHT22;30569;51.252;9.830;2024-01-30T02:55:10;4.70;99.90
44833;DHT22;30569;51.252;9.830;2024-01-30T02:57:35;4.60;99.90
44833;DHT22;30569;51.252;9.830;2024-01-30T03:00:01;4.70;99.90
44833;DHT22;30569;51.252;9.830;2024-01-30T03:02:28;5.70;99.90
44833;DHT22;30569;51.252;9.830;2024-01-30T03:04:53;4.70;99.90
44833;DHT22;30569;51.252;9.830;2024-01-30T03:07:19;4.60;99.90
44833;DHT22;30569;51.252;9.830;2024-01-30T03:09:45;4.50;99.90
44833;DHT22;30569;51.252;9.830;2024-01-30T03:12:10;4.40;99.90
44833;DHT22;30569;51.252;9.830;2024-01-30T03:14:36;4.40;99.90
44833;DHT22;30569;51.252;9.830;2024-01-30T03:17:02;4.50;99.90
44833;DHT22;30569;51.252;9.830;2024-01-30T03:19:28;4.70;99.90
44833;DHT22;30569;51.252;9.830;2024-01-30T03:21:53;4.70;99.90
44833;DHT22;30569;51.252;9.830;2024-01-30T03:24:19;4.70;99.90
44833;DHT22;30569;51.252;9.830;2024-01-30T03:26:44;4.80;99.90
44833;DHT22;30569;51.252;9.830;2024-01-30T03:29:10;4.90;99.90
44833;DHT22;30569;51.252;9.830;2024-01-30T03:31:36;4.90;99.90
44833;DHT22;30569;51.252;9.830;2024-01-30T03:34:02;5.10;99.90
44833;DHT22;30569;51.252;9.830;2024-01-30T03:36:28;5.00;99.90
44833;DHT22;30569;51.252;9.830;2024-01-30T03:38:53;5.10;99.90
44833;DHT22;30569;51.252;9.830;2024-01-30T03:41:19;5.10;99.90
44833;DHT22;30569;51.252;9.830;2024-01-30T03:43:45;5.10;99.90
44833;DHT22;30569;51.252;9.830;2024-01-30T03:46:13;5.10;99.90
44833;DHT22;30569;51.252;9.830;2024-01-30T03:48:39;4.80;99.90
44833;DHT22;30569;51.252;9.830;2024-01-30T03:51:05;4.70;99.90
44833;DHT22;30569;51.252;9.830;2024-01-30T03:53:31;4.70;99.90
44833;DHT22;30569;51.252;9.830;2024-01-30T03:55:56;4.80;99.90
44833;DHT22;30569;51.252;9.830;2024-01-30T03:58:22;4.50;99.90
44833;DHT22;30569;51.252;9.830;2024-01-30T04:00:47;4.40;99.90
44833;DHT22;30569;51.252;9.830;2024-01-30T04:03:14;4.40;99.90
44833;DHT22;30569;51.252;9.830;2024-01-30T04:05:41;4.20;99.90
44833;DHT22;30569;51.252;9.830;2024-01-30T04:08:07;4.20;99.90
44833;DHT22;30569;51.252;9.830;2024-01-30T04:10:33;4.10;99.90
44833;DHT22;30569;51.252;9.830;2024-01-30T04:12:58;4.10;99.90
44833;DHT22;30569;51.252;9.830;2024-01-30T04:15:25;4.00;99.90
44833;DHT22;30569;51.252;9.830;2024-01-30T04:17:50;3.90;99.90
44833;DHT22;30569;51.252;9.830;2024-01-30T04:20:16;3.90;99.90
44833;DHT22;30569;51.252;9.830;2024-01-30T04:22:43;3.80;99.90
44833;DHT22;30569;51.252;9.830;2024-01-30T04:25:09;3.80;99.90
44833;DHT22;30569;51.252;9.830;2024-01-30T04:27:35;3.80;99.90
44833;DHT22;30569;51.252;9.830;2024-01-30T04:30:01;3.80;99.90
44833;DHT22;30569;51.252;9.830;2024-01-30T04:32:26;3.80;99.90
44833;DHT22;30569;51.252;9.830;2024-01-30T04:34:52;3.70;99.90
44833;DHT22;30569;51.252;9.830;2024-01-30T04:37:17;3.70;99.90
44833;DHT22;30569;51.252;9.830;2024-01-30T04:39:43;3.70;99.90
44833;DHT22;30569;51.252;9.830;2024-01-30T04:42:09;3.60;99.90
44833;DHT22;30569;51.252;9.830;2024-01-30T04:44:34;3.50;99.90
44833;DHT22;30569;51.252;9.830;2024-01-30T04:47:00;3.50;99.90
44833;DHT22;30569;51.252;9.830;2024-01-30T04:49:27;3.50;99.90
44833;DHT22;30569;51.252;9.830;2024-01-30T04:51:52;3.40;99.90
44833;DHT22;30569;51.252;9.830;2024-01-30T04:54:18;3.40;99.90
44833;DHT22;30569;51.252;9.830;2024-01-30T04:56:44;3.40;99.90
44833;DHT22;30569;51.252;9.830;2024-01-30T04:59:09;3.40;99.90
44833;DHT22;30569;51.252;9.830;2024-01-30T05:01:35;3.30;99.90
44833;DHT22;30569;51.252;9.830;2024-01-30T05:06:27;3.30;99.90
44833;DHT22;30569;51.252;9.830;2024-01-30T05:08:53;3.60;99.90
44833;DHT22;30569;51.252;9.830;2024-01-30T05:11:19;3.60;99.90
44833;DHT22;30569;51.252;9.830;2024-01-30T05:16:13;3.60;99.90
44833;DHT22;30569;51.252;9.830;2024-01-30T05:18:39;3.70;99.90
44833;DHT22;30569;51.252;9.830;2024-01-30T05:21:05;3.80;99.90
44833;DHT22;30569;51.252;9.830;2024-01-30T05:23:31;3.80;99.90
44833;DHT22;30569;51.252;9.830;2024-01-30T05:25:57;3.80;99.90
44833;DHT22;30569;51.252;9.830;2024-01-30T05:28:22;3.90;99.90
44833;DHT22;30569;51.252;9.830;2024-01-30T05:30:48;3.90;99.90
44833;DHT22;30569;51.252;9.830;2024-01-30T05:33:14;4.10;99.90
44833;DHT22;30569;51.252;9.830;2024-01-30T05:35:39;4.10;99.90
44833;DHT22;30569;51.252;9.830;2024-01-30T05:38:05;4.20;99.90
44833;DHT22;30569;51.252;9.830;2024-01-30T05:40:30;4.30;99.90
44833;DHT22;30569;51.252;9.830;2024-01-30T05:42:56;4.30;99.90
44833;DHT22;30569;51.252;9.830;2024-01-30T05:45:26;4.30;99.90
44833;DHT22;30569;51.252;9.830;2024-01-30T05:47:52;4.30;99.90
44833;DHT22;30569;51.252;9.830;2024-01-30T05:50:18;4.50;99.90
44833;DHT22;30569;51.252;9.830;2024-01-30T05:52:44;4.60;99.90
44833;DHT22;30569;51.252;9.830;2024-01-30T05:55:10;4.50;99.90
44833;DHT22;30569;51.252;9.830;2024-01-30T05:57:37;4.50;99.90
44833;DHT22;30569;51.252;9.830;2024-01-30T06:00:04;4.30;99.90
44833;DHT22;30569;51.252;9.830;2024-01-30T06:02:29;4.40;99.90
44833;DHT22;30569;51.252;9.830;2024-01-30T06:04:55;4.40;99.90
44833;DHT22;30569;51.252;9.830;2024-01-30T06:07:21;4.30;99.90
44833;DHT22;30569;51.252;9.830;2024-01-30T06:09:47;4.50;99.90
44833;DHT22;30569;51.252;9.830;2024-01-30T06:12:13;4.50;99.90
44833;DHT22;30569;51.252;9.830;2024-01-30T06:14:38;4.50;99.90
44833;DHT22;30569;51.252;9.830;2024-01-30T06:17:05;4.40;99.90
44833;DHT22;30569;51.252;9.830;2024-01-30T06:19:30;4.30;99.90
44833;DHT22;30569;51.252;9.830;2024-01-30T06:21:59;4.40;99.90
44833;DHT22;30569;51.252;9.830;2024-01-30T06:24:24;4.40;99.90
44833;DHT22;30569;51.252;9.830;2024-01-30T06:26:50;4.40;99.90
44833;DHT22;30569;51.252;9.830;2024-01-30T06:29:16;4.60;99.90
44833;DHT22;30569;51.252;9.830;2024-01-30T06:31:42;4.50;99.90
44833;DHT22;30569;51.252;9.830;2024-01-30T06:34:09;4.50;99.90
44833;DHT22;30569;51.252;9.830;2024-01-30T06:36:35;4.30;99.90
44833;DHT22;30569;51.252;9.830;2024-01-30T06:39:02;4.20;99.90
44833;DHT22;30569;51.252;9.830;2024-01-30T06:41:28;4.20;99.90
44833;DHT22;30569;51.252;9.830;2024-01-30T06:43:53;4.80;99.90
44833;DHT22;30569;51.252;9.830;2024-01-30T06:46:19;4.30;99.90
44833;DHT22;30569;51.252;9.830;2024-01-30T06:48:45;4.30;99.90
44833;DHT22;30569;51.252;9.830;2024-01-30T06:51:11;4.40;99.90
44833;DHT22;30569;51.252;9.830;2024-01-30T06:53:37;4.30;99.90
44833;DHT22;30569;51.252;9.830;2024-01-30T06:56:03;4.30;99.90
44833;DHT22;30569;51.252;9.830;2024-01-30T06:58:29;4.40;99.90
44833;DHT22;30569;51.252;9.830;2024-01-30T07:00:55;4.50;99.90
44833;DHT22;30569;51.252;9.830;2024-01-30T07:03:21;4.70;99.90
44833;DHT22;30569;51.252;9.830;2024-01-30T07:05:47;4.70;99.90
44833;DHT22;30569;51.252;9.830;2024-01-30T07:08:13;4.70;99.90
44833;DHT22;30569;51.252;9.830;2024-01-30T07:10:38;4.70;99.90
44833;DHT22;30569;51.252;9.830;2024-01-30T07:13:04;4.70;99.90
44833;DHT22;30569;51.252;9.830;2024-01-30T07:15:31;4.40;99.90
44833;DHT22;30569;51.252;9.830;2024-01-30T07:17:56;4.60;99.90
44833;DHT22;30569;51.252;9.830;2024-01-30T07:20:22;4.70;99.90
44833;DHT22;30569;51.252;9.830;2024-01-30T07:22:48;4.80;99.90
44833;DHT22;30569;51.252;9.830;2024-01-30T07:25:13;4.80;99.90
44833;DHT22;30569;51.252;9.830;2024-01-30T07:27:39;4.90;99.90
44833;DHT22;30569;51.252;9.830;2024-01-30T07:30:05;4.90;99.90
44833;DHT22;30569;51.252;9.830;2024-01-30T07:32:31;4.90;99.90
44833;DHT22;30569;51.252;9.830;2024-01-30T07:34:57;5.00;99.90
44833;DHT22;30569;51.252;9.830;2024-01-30T07:37:23;5.10;99.90
44833;DHT22;30569;51.252;9.830;2024-01-30T07:39:48;5.10;99.90
44833;DHT22;30569;51.252;9.830;2024-01-30T07:42:14;5.10;99.90
44833;DHT22;30569;51.252;9.830;2024-01-30T07:44:39;5.10;99.90
44833;DHT22;30569;51.252;9.830;2024-01-30T07:47:05;5.30;99.90
44833;DHT22;30569;51.252;9.830;2024-01-30T07:49:31;5.30;99.90
44833;DHT22;30569;51.252;9.830;2024-01-30T07:51:57;5.40;99.90
44833;DHT22;30569;51.252;9.830;2024-01-30T07:54:22;5.40;99.90
44833;DHT22;30569;51.252;9.830;2024-01-30T07:56:48;5.60;99.90
44833;DHT22;30569;51.252;9.830;2024-01-30T07:59:14;5.50;99.90
44833;DHT22;30569;51.252;9.830;2024-01-30T08:01:40;5.50;99.90
44833;DHT22;30569;51.252;9.830;2024-01-30T08:04:05;5.70;99.90
44833;DHT22;30569;51.252;9.830;2024-01-30T08:06:32;5.90;99.90
44833;DHT22;30569;51.252;9.830;2024-01-30T08:08:58;6.00;99.90
44833;DHT22;30569;51.252;9.830;2024-01-30T08:11:24;6.20;99.90
44833;DHT22;30569;51.252;9.830;2024-01-30T08:13:53;6.40;99.90
44833;DHT22;30569;51.252;9.830;2024-01-30T08:16:18;6.30;99.90
44833;DHT22;30569;51.252;9.830;2024-01-30T08:18:44;6.30;99.90
44833;DHT22;30569;51.252;9.830;2024-01-30T08:21:09;6.40;99.90
44833;DHT22;30569;51.252;9.830;2024-01-30T08:23:35;6.50;99.90
44833;DHT22;30569;51.252;9.830;2024-01-30T08:26:01;6.40;99.90
44833;DHT22;30569;51.252;9.830;2024-01-30T08:28:26;6.50;99.90
44833;DHT22;30569;51.252;9.830;2024-01-30T08:30:52;6.60;99.90
44833;DHT22;30569;51.252;9.830;2024-01-30T08:33:18;6.60;99.90
44833;DHT22;30569;51.252;9.830;2024-01-30T08:35:44;6.80;99.90
44833;DHT22;30569;51.252;9.830;2024-01-30T08:38:09;7.10;99.90
44833;DHT22;30569;51.252;9.830;2024-01-30T08:40:37;6.90;99.90
44833;DHT22;30569;51.252;9.830;2024-01-30T08:43:03;7.00;99.90
44833;DHT22;30569;51.252;9.830;2024-01-30T08:45:29;7.10;99.90
44833;DHT22;30569;51.252;9.830;2024-01-30T08:47:56;7.30;99.90
44833;DHT22;30569;51.252;9.830;2024-01-30T08:50:21;7.30;99.90
44833;DHT22;30569;51.252;9.830;2024-01-30T08:52:47;7.40;99.90
44833;DHT22;30569;51.252;9.830;2024-01-30T08:55:12;7.70;99.90
44833;DHT22;30569;51.252;9.830;2024-01-30T08:57:38;7.80;99.90
44833;DHT22;30569;51.252;9.830;2024-01-30T09:00:04;8.00;99.90
44833;DHT22;30569;51.252;9.830;2024-01-30T09:02:32;8.10;99.90
44833;DHT22;30569;51.252;9.830;2024-01-30T09:04:58;8.20;99.90
44833;DHT22;30569;51.252;9.830;2024-01-30T09:07:24;8.20;99.90
44833;DHT22;30569;51.252;9.830;2024-01-30T09:09:49;8.20;99.90
44833;DHT22;30569;51.252;9.830;2024-01-30T09:12:15;8.20;99.90
44833;DHT22;30569;51.252;9.830;2024-01-30T09:14:40;8.30;99.90
44833;DHT22;30569;51.252;9.830;2024-01-30T09:17:07;8.50;99.90
44833;DHT22;30569;51.252;9.830;2024-01-30T09:19:32;8.50;99.90
44833;DHT22;30569;51.252;9.830;2024-01-30T09:21:58;8.60;99.90
44833;DHT22;30569;51.252;9.830;2024-01-30T09:24:24;8.50;99.90
44833;DHT22;30569;51.252;9.830;2024-01-30T09:26:50;8.90;99.90
44833;DHT22;30569;51.252;9.830;2024-01-30T09:31:45;8.90;99.90
44833;DHT22;30569;51.252;9.830;2024-01-30T09:34:12;8.70;99.90
44833;DHT22;30569;51.252;9.830;2024-01-30T09:36:37;8.70;99.90
44833;DHT22;30569;51.252;9.830;2024-01-30T09:39:03;8.80;99.90
44833;DHT22;30569;51.252;9.830;2024-01-30T09:41:32;8.80;99.90
44833;DHT22;30569;51.252;9.830;2024-01-30T09:43:59;9.30;99.90
44833;DHT22;30569;51.252;9.830;2024-01-30T09:46:27;9.00;99.90
44833;DHT22;30569;51.252;9.830;2024-01-30T09:48:55;9.10;99.90
44833;DHT22;30569;51.252;9.830;2024-01-30T09:51:22;9.00;99.90
44833;DHT22;30569;51.252;9.830;2024-01-30T09:53:48;9.00;99.90
44833;DHT22;30569;51.252;9.830;2024-01-30T09:56:14;9.20;99.90
44833;DHT22;30569;51.252;9.830;2024-01-30T09:58:40;9.30;99.90
44833;DHT22;30569;51.252;9.830;2024-01-30T10:01:06;9.40;99.90
44833;DHT22;30569;51.252;9.830;2024-01-30T10:03:31;9.50;99.90
44833;DHT22;30569;51.252;9.830;2024-01-30T10:05:57;9.20;99.90
44833;DHT22;30569;51.252;9.830;2024-01-30T10:08:23;9.10;99.90
44833;DHT22;30569;51.252;9.830;2024-01-30T10:10:49;9.20;99.90
44833;DHT22;30569;51.252;9.830;2024-01-30T10:13:15;9.20;99.90
44833;DHT22;30569;51.252;9.830;2024-01-30T10:15:41;9.20;99.90
44833;DHT22;30569;51.252;9.830;2024-01-30T10:18:08;9.30;99.90
44833;DHT22;30569;51.252;9.830;2024-01-30T10:20:35;9.20;99.90
44833;DHT22;30569;51.252;9.830;2024-01-30T10:23:01;9.30;99.90
44833;DHT22;30569;51.252;9.830;2024-01-30T10:25:27;9.70;99.90
44833;DHT22;30569;51.252;9.830;2024-01-30T10:27:53;9.80;99.90
44833;DHT22;30569;51.252;9.830;2024-01-30T10:30:22;9.80;99.80
44833;DHT22;30569;51.252;9.830;2024-01-30T10:32:48;9.90;99.70
44833;DHT22;30569;51.252;9.830;2024-01-30T10:35:15;9.90;99.20
44833;DHT22;30569;51.252;9.830;2024-01-30T10:37:43;9.80;99.80
44833;DHT22;30569;51.252;9.830;2024-01-30T10:40:09;9.50;99.70
44833;DHT22;30569;51.252;9.830;2024-01-30T10:42:42;9.40;99.90
44833;DHT22;30569;51.252;9.830;2024-01-30T10:45:14;8.90;99.90
44833;DHT22;30569;51.252;9.830;2024-01-30T10:47:50;8.60;99.90
44833;DHT22;30569;51.252;9.830;2024-01-30T10:50:16;8.60;99.90
44833;DHT22;30569;51.252;9.830;2024-01-30T10:52:42;8.80;99.90
44833;DHT22;30569;51.252;9.830;2024-01-30T10:55:10;8.70;99.90
44833;DHT22;30569;51.252;9.830;2024-01-30T10:57:36;8.50;99.90
44833;DHT22;30569;51.252;9.830;2024-01-30T11:00:04;8.30;99.90
44833;DHT22;30569;51.252;9.830;2024-01-30T11:02:32;8.30;99.90
44833;DHT22;30569;51.252;9.830;2024-01-30T11:04:58;8.40;99.90
44833;DHT22;30569;51.252;9.830;2024-01-30T11:07:29;8.60;99.90
44833;DHT22;30569;51.252;9.830;2024-01-30T11:12:25;8.50;99.90
44833;DHT22;30569;51.252;9.830;2024-01-30T11:15:13;8.50;99.90
44833;DHT22;30569;51.252;9.830;2024-01-30T11:20:30;8.90;99.90
44833;DHT22;30569;51.252;9.830;2024-01-30T11:22:57;8.90;99.90
44833;DHT22;30569;51.252;9.830;2024-01-30T11:25:24;9.00;99.90
44833;DHT22;30569;51.252;9.830;2024-01-30T11:27:54;9.20;99.90
44833;DHT22;30569;51.252;9.830;2024-01-30T11:30:28;9.10;99.90
44833;DHT22;30569;51.252;9.830;2024-01-30T11:33:04;9.10;99.90
44833;DHT22;30569;51.252;9.830;2024-01-30T11:35:34;8.90;99.90
44833;DHT22;30569;51.252;9.830;2024-01-30T11:38:01;9.40;99.90
44833;DHT22;30569;51.252;9.830;2024-01-30T11:40:28;9.90;99.90
44833;DHT22;30569;51.252;9.830;2024-01-30T11:42:58;9.90;99.90
44833;DHT22;30569;51.252;9.830;2024-01-30T11:45:24;9.90;99.90
44833;DHT22;30569;51.252;9.830;2024-01-30T11:47:50;10.20;99.90
44833;DHT22;30569;51.252;9.830;2024-01-30T11:50:16;9.70;99.90
44833;DHT22;30569;51.252;9.830;2024-01-30T11:52:42;9.60;99.90
44833;DHT22;30569;51.252;9.830;2024-01-30T11:55:09;9.90;99.90
44833;DHT22;30569;51.252;9.830;2024-01-30T11:57:35;10.00;99.90
44833;DHT22;30569;51.252;9.830;2024-01-30T12:00:03;9.90;99.90
44833;DHT22;30569;51.252;9.830;2024-01-30T12:02:40;10.00;99.90
44833;DHT22;30569;51.252;9.830;2024-01-30T12:05:06;10.10;99.90
44833;DHT22;30569;51.252;9.830;2024-01-30T12:07:32;10.10;99.90
44833;DHT22;30569;51.252;9.830;2024-01-30T12:09:58;10.60;99.30
44833;DHT22;30569;51.252;9.830;2024-01-30T12:12:28;10.60;99.90
44833;DHT22;30569;51.252;9.830;2024-01-30T12:14:55;10.80;99.60
44833;DHT22;30569;51.252;9.830;2024-01-30T12:17:31;10.20;99.80
44833;DHT22;30569;51.252;9.830;2024-01-30T12:20:10;10.30;99.70
44833;DHT22;30569;51.252;9.830;2024-01-30T12:22:47;10.40;99.90
44833;DHT22;30569;51.252;9.830;2024-01-30T12:25:15;10.00;99.90
44833;DHT22;30569;51.252;9.830;2024-01-30T12:27:45;9.70;99.90
44833;DHT22;30569;51.252;9.830;2024-01-30T12:30:13;9.40;99.90
44833;DHT22;30569;51.252;9.830;2024-01-30T12:32:43;9.50;99.90
44833;DHT22;30569;51.252;9.830;2024-01-30T12:35:10;9.40;99.90
44833;DHT22;30569;51.252;9.830;2024-01-30T12:37:36;9.70;99.90
44833;DHT22;30569;51.252;9.830;2024-01-30T12:40:02;9.80;99.90
44833;DHT22;30569;51.252;9.830;2024-01-30T12:42:28;9.70;99.90
44833;DHT22;30569;51.252;9.830;2024-01-30T12:44:53;9.70;99.90
44833;DHT22;30569;51.252;9.830;2024-01-30T12:47:21;9.80;99.90
44833;DHT22;30569;51.252;9.830;2024-01-30T12:49:47;9.80;99.90
44833;DHT22;30569;51.252;9.830;2024-01-30T12:52:16;9.80;99.90
44833;DHT22;30569;51.252;9.830;2024-01-30T12:54:42;10.10;99.90
44833;DHT22;30569;51.252;9.830;2024-01-30T12:57:08;10.40;99.90
44833;DHT22;30569;51.252;9.830;2024-01-30T12:59:33;10.60;98.40
44833;DHT22;30569;51.252;9.830;2024-01-30T13:02:01;10.70;98.80
44833;DHT22;30569;51.252;9.830;2024-01-30T13:04:27;10.90;99.30
44833;DHT22;30569;51.252;9.830;2024-01-30T13:06:53;10.90;98.80
44833;DHT22;30569;51.252;9.830;2024-01-30T13:09:19;10.90;98.30
44833;DHT22;30569;51.252;9.830;2024-01-30T13:11:45;10.90;98.60
44833;DHT22;30569;51.252;9.830;2024-01-30T13:14:11;11.10;99.50
44833;DHT22;30569;51.252;9.830;2024-01-30T13:16:37;10.90;99.00
44833;DHT22;30569;51.252;9.830;2024-01-30T13:19:02;11.20;98.80
44833;DHT22;30569;51.252;9.830;2024-01-30T13:21:28;11.10;98.40
44833;DHT22;30569;51.252;9.830;2024-01-30T13:23:54;11.20;99.20
44833;DHT22;30569;51.252;9.830;2024-01-30T13:26:22;11.50;98.30
44833;DHT22;30569;51.252;9.830;2024-01-30T13:28:48;11.60;98.20
44833;DHT22;30569;51.252;9.830;2024-01-30T13:31:14;11.50;98.10
44833;DHT22;30569;51.252;9.830;2024-01-30T13:33:40;11.40;98.20
44833;DHT22;30569;51.252;9.830;2024-01-30T13:36:07;11.50;98.80
44833;DHT22;30569;51.252;9.830;2024-01-30T13:38:33;11.90;98.50
44833;DHT22;30569;51.252;9.830;2024-01-30T13:40:59;11.80;98.10
44833;DHT22;30569;51.252;9.830;2024-01-30T13:43:25;11.40;98.50
44833;DHT22;30569;51.252;9.830;2024-01-30T13:45:51;11.00;99.20
44833;DHT22;30569;51.252;9.830;2024-01-30T13:48:16;10.60;99.80
44833;DHT22;30569;51.252;9.830;2024-01-30T13:50:42;10.60;99.90
44833;DHT22;30569;51.252;9.830;2024-01-30T13:53:08;10.70;99.90
44833;DHT22;30569;51.252;9.830;2024-01-30T13:55:34;10.80;99.80
44833;DHT22;30569;51.252;9.830;2024-01-30T13:58:00;10.80;99.90
44833;DHT22;30569;51.252;9.830;2024-01-30T14:00:27;10.60;99.90
44833;DHT22;30569;51.252;9.830;2024-01-30T14:02:52;10.50;99.90
44833;DHT22;30569;51.252;9.830;2024-01-30T14:05:20;10.40;99.90
44833;DHT22;30569;51.252;9.830;2024-01-30T14:07:47;10.20;99.90
44833;DHT22;30569;51.252;9.830;2024-01-30T14:10:12;10.10;99.90
44833;DHT22;30569;51.252;9.830;2024-01-30T14:12:38;10.10;99.90
44833;DHT22;30569;51.252;9.830;2024-01-30T14:15:04;10.00;99.90
44833;DHT22;30569;51.252;9.830;2024-01-30T14:17:30;9.90;99.90
44833;DHT22;30569;51.252;9.830;2024-01-30T14:19:56;9.90;99.90
44833;DHT22;30569;51.252;9.830;2024-01-30T14:22:22;10.00;99.90
44833;DHT22;30569;51.252;9.830;2024-01-30T14:24:47;10.00;99.90
44833;DHT22;30569;51.252;9.830;2024-01-30T14:27:13;10.20;99.90
44833;DHT22;30569;51.252;9.830;2024-01-30T14:29:39;10.30;99.90
44833;DHT22;30569;51.252;9.830;2024-01-30T14:32:04;10.30;99.90
44833;DHT22;30569;51.252;9.830;2024-01-30T14:34:30;10.30;99.90
44833;DHT22;30569;51.252;9.830;2024-01-30T14:36:56;10.10;99.90
44833;DHT22;30569;51.252;9.830;2024-01-30T14:39:23;9.80;99.90
44833;DHT22;30569;51.252;9.830;2024-01-30T14:41:49;9.70;99.90
44833;DHT22;30569;51.252;9.830;2024-01-30T14:44:14;9.60;99.90
44833;DHT22;30569;51.252;9.830;2024-01-30T14:46:40;9.60;99.90
44833;DHT22;30569;51.252;9.830;2024-01-30T14:49:06;9.70;99.90
44833;DHT22;30569;51.252;9.830;2024-01-30T14:51:33;9.60;99.90
44833;DHT22;30569;51.252;9.830;2024-01-30T14:53:59;10.00;99.90
44833;DHT22;30569;51.252;9.830;2024-01-30T14:56:26;10.30;99.90
44833;DHT22;30569;51.252;9.830;2024-01-30T14:58:52;10.60;99.90
44833;DHT22;30569;51.252;9.830;2024-01-30T15:01:17;10.00;99.90
44833;DHT22;30569;51.252;9.830;2024-01-30T15:03:44;9.70;99.90
44833;DHT22;30569;51.252;9.830;2024-01-30T15:06:12;9.80;99.90
44833;DHT22;30569;51.252;9.830;2024-01-30T15:08:38;9.70;99.90
44833;DHT22;30569;51.252;9.830;2024-01-30T15:11:04;10.00;99.90
44833;DHT22;30569;51.252;9.830;2024-01-30T15:13:30;10.40;99.90
44833;DHT22;30569;51.252;9.830;2024-01-30T15:15:56;10.50;99.90
44833;DHT22;30569;51.252;9.830;2024-01-30T15:18:22;10.40;99.90
44833;DHT22;30569;51.252;9.830;2024-01-30T15:20:49;10.60;99.90
44833;DHT22;30569;51.252;9.830;2024-01-30T15:23:14;10.40;99.90
44833;DHT22;30569;51.252;9.830;2024-01-30T15:25:41;10.50;99.90
44833;DHT22;30569;51.252;9.830;2024-01-30T15:28:07;10.30;99.90
44833;DHT22;30569;51.252;9.830;2024-01-30T15:30:32;9.90;99.90
44833;DHT22;30569;51.252;9.830;2024-01-30T15:32:58;10.10;99.90
44833;DHT22;30569;51.252;9.830;2024-01-30T15:35:24;10.30;99.90
44833;DHT22;30569;51.252;9.830;2024-01-30T15:37:50;10.40;99.90
44833;DHT22;30569;51.252;9.830;2024-01-30T15:40:15;9.40;99.90
44833;DHT22;30569;51.252;9.830;2024-01-30T15:42:41;9.30;99.90
44833;DHT22;30569;51.252;9.830;2024-01-30T15:45:07;9.00;99.90
44833;DHT22;30569;51.252;9.830;2024-01-30T15:47:32;8.90;99.90
44833;DHT22;30569;51.252;9.830;2024-01-30T15:49:58;8.80;99.90
44833;DHT22;30569;51.252;9.830;2024-01-30T15:52:24;8.90;99.90
44833;DHT22;30569;51.252;9.830;2024-01-30T15:54:49;9.00;99.90